Time;durP1;ratioP1;P1;durP2;ratioP2;P2;SDS_P1;SDS_P2;PMS_P1;PMS_P2;Temp;Humidity;BMP_temperature;BMP_pressure;BME280_temperature;BME280_humidity;BME280_pressure;Samples;Min_cycle;Max_cycle;Signal;HPM_P1;HPM_P2
2022/09/17 00:01:12;;;;;;;4.35;1.92;;;13.80;97.40;;;;;;4993927;28;20037;-70
2022/09/17 00:03:38;;;;;;;2.58;1.70;;;13.80;97.30;;;;;;4994864;28;20403;-70
2022/09/17 00:06:06;;;;;;;2.15;1.75;;;13.70;97.50;;;;;;4991948;28;20040;-69
2022/09/17 00:08:33;;;;;;;3.47;2.17;;;13.70;97.60;;;;;;4993148;28;20364;-69
2022/09/17 00:11:15;;;;;;;4.60;2.30;;;13.70;97.50;;;;;;4993609;28;20359;-71
2022/09/17 00:13:43;;;;;;;1.98;1.67;;;13.70;97.70;;;;;;4994392;28;20109;-70
2022/09/17 00:16:09;;;;;;;3.10;2.03;;;13.70;97.80;;;;;;4993746;28;20058;-70
2022/09/17 00:18:39;;;;;;;2.15;1.85;;;13.70;97.60;;;;;;4993986;28;20030;-70
2022/09/17 00:21:05;;;;;;;3.08;1.95;;;13.70;97.70;;;;;;4992973;28;20030;-70
2022/09/17 00:23:30;;;;;;;3.08;1.90;;;13.70;97.80;;;;;;4994055;28;20030;-69
2022/09/17 00:25:57;;;;;;;3.55;2.22;;;13.70;97.90;;;;;;4993832;28;20030;-70
2022/09/17 00:28:23;;;;;;;5.20;2.22;;;13.60;98.00;;;;;;4993345;28;20030;-70
2022/09/17 00:30:49;;;;;;;2.65;2.00;;;13.60;97.90;;;;;;4993678;28;20104;-69
2022/09/17 00:33:16;;;;;;;2.35;1.88;;;13.60;97.90;;;;;;4992954;28;20034;-69
2022/09/17 00:35:42;;;;;;;3.55;1.77;;;13.60;98.10;;;;;;4993380;28;20475;-69
2022/09/17 00:38:08;;;;;;;2.00;1.77;;;13.60;98.10;;;;;;4992156;28;20033;-69
2022/09/17 00:40:35;;;;;;;2.00;1.77;;;13.60;98.20;;;;;;4993575;28;20054;-70
2022/09/17 00:43:01;;;;;;;4.35;2.00;;;13.60;98.30;;;;;;4993265;28;20093;-69
2022/09/17 00:45:27;;;;;;;3.92;1.75;;;13.50;98.30;;;;;;4993644;28;20066;-69
2022/09/17 00:47:57;;;;;;;2.95;2.00;;;13.50;98.50;;;;;;4993254;28;20479;-68
2022/09/17 00:50:32;;;;;;;6.97;2.37;;;13.50;98.40;;;;;;4993240;28;20154;-70
2022/09/17 00:53:04;;;;;;;1.95;1.70;;;13.50;98.50;;;;;;4993409;28;20034;-70
2022/09/17 00:55:32;;;;;;;2.95;2.08;;;13.50;98.50;;;;;;4993511;28;20026;-69
2022/09/17 00:58:00;;;;;;;3.75;1.98;;;13.50;98.70;;;;;;4993511;28;20022;-70
2022/09/17 01:00:27;;;;;;;3.05;2.20;;;13.50;98.50;;;;;;4993130;28;20034;-69
2022/09/17 01:02:53;;;;;;;3.17;1.90;;;13.50;98.60;;;;;;4993272;28;20034;-70
2022/09/17 01:05:27;;;;;;;3.22;1.83;;;13.50;98.70;;;;;;4992633;28;20037;-69
2022/09/17 01:08:51;;;;;;;4.30;2.28;;;13.40;98.80;;;;;;4975837;28;20611;-69
2022/09/17 01:11:35;;;;;;;4.00;1.92;;;13.40;99.00;;;;;;4916721;29;20036;-69
2022/09/17 01:14:25;;;;;;;3.75;2.05;;;13.40;99.10;;;;;;4988396;28;20034;-69
2022/09/17 01:17:13;;;;;;;3.70;2.03;;;13.40;99.10;;;;;;4994126;28;20092;-70
2022/09/17 01:20:16;;;;;;;3.88;1.98;;;13.40;99.30;;;;;;4976932;28;20034;-70
2022/09/17 01:23:19;;;;;;;6.25;2.13;;;13.40;99.30;;;;;;4993969;28;20073;-70
2022/09/17 01:26:15;;;;;;;2.72;1.85;;;13.40;99.20;;;;;;4993761;28;20092;-70
2022/09/17 01:28:48;;;;;;;3.63;2.30;;;13.40;99.10;;;;;;4993247;28;20058;-70
2022/09/17 01:31:33;;;;;;;2.47;2.03;;;13.40;99.20;;;;;;4992534;28;20030;-70
2022/09/17 01:34:27;;;;;;;4.30;2.97;;;13.40;99.20;;;;;;4996073;28;20026;-70
2022/09/17 01:37:01;;;;;;;2.28;2.03;;;13.40;99.30;;;;;;4997158;28;20030;-70
2022/09/17 01:39:51;;;;;;;2.60;1.60;;;13.40;99.40;;;;;;4996386;28;20085;-70
2022/09/17 01:42:20;;;;;;;2.92;2.10;;;13.40;99.40;;;;;;4996541;28;20050;-70
2022/09/17 01:45:06;;;;;;;2.50;2.20;;;13.40;99.30;;;;;;5000667;28;20030;-70
2022/09/17 01:47:52;;;;;;;3.80;2.35;;;13.40;99.10;;;;;;4996803;28;20030;-70
2022/09/17 01:50:29;;;;;;;2.38;1.88;;;13.40;99.10;;;;;;4996762;28;20022;-70
2022/09/17 01:52:56;;;;;;;3.05;1.83;;;13.40;99.30;;;;;;4997279;28;20037;-70
2022/09/17 01:55:28;;;;;;;2.35;1.83;;;13.40;99.30;;;;;;4980132;28;20030;-70
2022/09/17 01:57:59;;;;;;;2.22;1.70;;;13.40;99.40;;;;;;4997695;28;20018;-70
2022/09/17 02:00:25;;;;;;;3.92;2.08;;;13.40;99.50;;;;;;4996695;28;20061;-69
2022/09/17 02:02:57;;;;;;;2.60;2.08;;;13.40;99.50;;;;;;4996877;28;20085;-69
2022/09/17 02:05:32;;;;;;;2.80;2.08;;;13.30;99.70;;;;;;4996318;28;20057;-69
2022/09/17 02:08:30;;;;;;;4.18;2.45;;;13.30;99.90;;;;;;4996322;28;20066;-70
2022/09/17 02:11:08;;;;;;;7.57;2.22;;;13.30;99.90;;;;;;4993678;28;20034;-69
2022/09/17 02:13:42;;;;;;;5.53;2.88;;;13.30;99.90;;;;;;4996393;28;20088;-69
2022/09/17 02:16:26;;;;;;;3.35;2.40;;;13.30;99.90;;;;;;4992549;28;20058;-73
2022/09/17 02:19:17;;;;;;;3.20;2.67;;;13.20;99.90;;;;;;4996405;28;20037;-69
2022/09/17 02:22:05;;;;;;;3.90;2.58;;;13.20;99.90;;;;;;4996274;28;20026;-69
2022/09/17 02:24:48;;;;;;;5.75;2.40;;;13.20;99.90;;;;;;4995844;28;20033;-70
2022/09/17 02:27:14;;;;;;;5.10;2.83;;;13.20;99.90;;;;;;4995896;28;20038;-70
2022/09/17 02:29:42;;;;;;;4.22;2.63;;;13.20;99.90;;;;;;4996192;28;20422;-69
2022/09/17 02:32:09;;;;;;;2.85;2.30;;;13.10;99.90;;;;;;4995911;28;20042;-72
2022/09/17 02:34:35;;;;;;;2.88;2.20;;;13.10;99.90;;;;;;4995691;28;20053;-69
2022/09/17 02:37:03;;;;;;;5.07;2.45;;;13.10;99.90;;;;;;4995685;28;20027;-69
2022/09/17 02:39:29;;;;;;;3.38;2.28;;;13.10;99.90;;;;;;4994184;28;20031;-69
2022/09/17 02:42:10;;;;;;;4.30;2.80;;;13.10;99.90;;;;;;4995608;28;20053;-69
2022/09/17 02:44:57;;;;;;;3.50;2.53;;;13.10;99.90;;;;;;4995321;28;20037;-70
2022/09/17 02:47:50;;;;;;;3.10;2.33;;;13.10;99.90;;;;;;4995102;28;20041;-70
2022/09/17 02:50:47;;;;;;;4.18;2.90;;;13.10;99.90;;;;;;4995056;28;20482;-70
2022/09/17 02:53:34;;;;;;;5.18;2.58;;;13.10;99.90;;;;;;4995195;28;20525;-70
2022/09/17 02:56:29;;;;;;;3.47;2.55;;;13.00;99.90;;;;;;4995562;28;20057;-69
2022/09/17 02:59:09;;;;;;;3.67;2.30;;;13.10;99.90;;;;;;4993192;28;20394;-69
2022/09/17 03:01:45;;;;;;;5.43;2.55;;;13.10;99.90;;;;;;4995770;28;20022;-70
2022/09/17 03:04:15;;;;;;;2.63;2.25;;;13.10;99.90;;;;;;4995007;28;20030;-70
2022/09/17 03:06:45;;;;;;;3.45;2.70;;;13.10;99.90;;;;;;4995191;28;20431;-70
2022/09/17 03:09:10;;;;;;;5.35;2.45;;;13.10;99.90;;;;;;4995418;28;20031;-71
2022/09/17 03:11:36;;;;;;;3.75;2.53;;;13.10;99.90;;;;;;4995221;28;20026;-69
2022/09/17 03:14:02;;;;;;;3.65;2.90;;;13.10;99.90;;;;;;4995123;28;20037;-69
2022/09/17 03:16:27;;;;;;;5.50;2.95;;;13.10;99.90;;;;;;4994532;28;20027;-70
2022/09/17 03:18:53;;;;;;;3.15;2.28;;;13.10;99.90;;;;;;4995208;28;20080;-70
2022/09/17 03:21:18;;;;;;;3.50;2.47;;;13.10;99.90;;;;;;4994542;28;20027;-69
2022/09/17 03:23:45;;;;;;;4.10;2.35;;;13.10;99.90;;;;;;4977672;28;20475;-69
2022/09/17 03:26:11;;;;;;;3.17;2.40;;;13.10;99.90;;;;;;4995108;28;20462;-69
2022/09/17 03:28:37;;;;;;;3.03;2.40;;;13.20;99.90;;;;;;4995233;28;20101;-70
2022/09/17 03:31:04;;;;;;;3.70;2.30;;;13.10;99.90;;;;;;4977364;28;20455;-70
2022/09/17 03:33:30;;;;;;;5.47;2.72;;;13.10;99.90;;;;;;4994407;28;20656;-69
2022/09/17 03:35:56;;;;;;;2.70;2.17;;;13.10;99.90;;;;;;4995194;28;20053;-69
2022/09/17 03:38:22;;;;;;;2.22;2.03;;;13.10;99.90;;;;;;4994598;28;20113;-70
2022/09/17 03:41:02;;;;;;;4.70;2.50;;;13.10;99.90;;;;;;4994887;28;20027;-70
2022/09/17 03:43:28;;;;;;;2.50;2.20;;;13.10;99.90;;;;;;4994293;28;20042;-69
2022/09/17 03:45:54;;;;;;;4.30;2.60;;;13.10;99.90;;;;;;4994677;28;20487;-69
2022/09/17 03:48:19;;;;;;;2.90;2.50;;;13.10;99.90;;;;;;4994280;28;20035;-69
2022/09/17 03:50:45;;;;;;;4.80;2.45;;;13.10;99.90;;;;;;4994595;28;20089;-69
2022/09/17 03:53:11;;;;;;;4.18;2.60;;;13.10;99.90;;;;;;4994503;28;20045;-69
2022/09/17 03:55:39;;;;;;;2.33;2.13;;;13.10;99.90;;;;;;4993293;28;20056;-69
2022/09/17 03:58:05;;;;;;;6.63;2.17;;;13.10;99.90;;;;;;4994242;28;20049;-69
2022/09/17 04:00:31;;;;;;;2.70;2.17;;;13.10;99.90;;;;;;4994209;28;20062;-69
2022/09/17 04:02:57;;;;;;;6.18;2.40;;;13.10;99.90;;;;;;4994565;28;20475;-69
2022/09/17 04:05:23;;;;;;;4.20;2.20;;;13.10;99.90;;;;;;4993749;28;20109;-69
2022/09/17 04:07:49;;;;;;;3.00;2.40;;;13.10;99.90;;;;;;4994353;28;20034;-69
2022/09/17 04:10:15;;;;;;;3.85;2.40;;;13.10;99.90;;;;;;4994515;28;20106;-69
2022/09/17 04:12:41;;;;;;;3.97;2.85;;;13.20;99.90;;;;;;4994315;28;20022;-69
2022/09/17 04:15:07;;;;;;;2.83;2.35;;;13.10;99.90;;;;;;4993576;28;20158;-69
2022/09/17 04:17:33;;;;;;;5.88;2.70;;;13.10;99.90;;;;;;4985272;28;20034;-69
2022/09/17 04:19:58;;;;;;;3.28;2.30;;;13.10;99.90;;;;;;4974411;28;20387;-69
2022/09/17 04:22:25;;;;;;;3.33;2.63;;;13.10;99.90;;;;;;4974196;28;20046;-69
2022/09/17 04:24:51;;;;;;;3.83;2.42;;;13.10;99.90;;;;;;4974360;28;20039;-70
2022/09/17 04:27:17;;;;;;;3.13;2.08;;;13.10;99.90;;;;;;4956914;28;20033;-74
2022/09/17 04:29:42;;;;;;;2.60;2.40;;;13.00;99.90;;;;;;4974184;28;20117;-70
2022/09/17 04:32:08;;;;;;;5.20;2.72;;;13.00;99.90;;;;;;4957097;28;20559;-69
2022/09/17 04:34:34;;;;;;;4.20;2.30;;;13.00;99.90;;;;;;4988148;28;20030;-69
2022/09/17 04:36:59;;;;;;;2.83;2.30;;;13.00;99.90;;;;;;4993692;28;20105;-69
2022/09/17 04:39:25;;;;;;;4.57;2.58;;;13.00;99.90;;;;;;4993199;28;20030;-69
2022/09/17 04:41:51;;;;;;;3.33;2.55;;;13.00;99.90;;;;;;4976265;28;20113;-69
2022/09/17 04:44:16;;;;;;;2.60;2.03;;;13.00;99.90;;;;;;4993700;28;20436;-69
2022/09/17 04:46:42;;;;;;;4.97;2.70;;;13.00;99.90;;;;;;4992875;28;20045;-69
2022/09/17 04:49:07;;;;;;;4.05;2.75;;;12.90;99.90;;;;;;4993176;28;20375;-68
2022/09/17 04:51:33;;;;;;;3.50;2.83;;;12.90;99.90;;;;;;4992771;28;20041;-70
2022/09/17 04:53:59;;;;;;;3.72;2.70;;;12.90;99.90;;;;;;4993497;28;20168;-70
2022/09/17 04:56:25;;;;;;;6.25;3.13;;;12.90;99.90;;;;;;4993159;28;20026;-69
2022/09/17 04:58:50;;;;;;;4.15;2.80;;;12.90;99.90;;;;;;4993243;28;20428;-69
2022/09/17 05:01:17;;;;;;;5.72;2.90;;;12.90;99.90;;;;;;4993561;28;20367;-69
2022/09/17 05:03:43;;;;;;;4.40;2.17;;;12.90;99.90;;;;;;4992762;28;20034;-69
2022/09/17 05:06:10;;;;;;;5.55;2.90;;;12.90;99.90;;;;;;4993390;28;20101;-70
2022/09/17 05:08:35;;;;;;;5.40;3.08;;;12.90;99.90;;;;;;4993067;28;20113;-69
2022/09/17 05:11:02;;;;;;;4.35;2.80;;;12.90;99.90;;;;;;4993318;28;20101;-70
2022/09/17 05:13:27;;;;;;;5.97;2.92;;;12.90;99.90;;;;;;4992430;28;20438;-70
2022/09/17 05:15:57;;;;;;;6.88;3.33;;;13.00;99.90;;;;;;4993469;28;20057;-70
2022/09/17 05:18:23;;;;;;;4.63;3.13;;;13.00;99.90;;;;;;4992601;28;20117;-71
2022/09/17 05:20:49;;;;;;;4.05;3.03;;;13.00;99.90;;;;;;4993324;28;20102;-70
2022/09/17 05:23:14;;;;;;;4.43;3.20;;;13.00;99.90;;;;;;4993285;28;20142;-70
2022/09/17 05:25:40;;;;;;;4.28;3.47;;;13.00;99.90;;;;;;4992534;28;20907;-70
2022/09/17 05:28:06;;;;;;;6.28;3.15;;;13.00;99.90;;;;;;4975769;28;20387;-69
2022/09/17 05:30:32;;;;;;;4.22;3.38;;;13.00;99.90;;;;;;4992467;28;20031;-70
2022/09/17 05:32:59;;;;;;;3.95;2.83;;;13.00;99.90;;;;;;4992892;28;20493;-69
2022/09/17 05:35:25;;;;;;;4.43;3.00;;;13.10;99.90;;;;;;4992415;28;20038;-70
2022/09/17 05:37:55;;;;;;;3.17;2.83;;;13.10;99.90;;;;;;4992910;28;20114;-70
2022/09/17 05:40:21;;;;;;;3.85;2.80;;;13.00;99.90;;;;;;4993098;28;20046;-72
2022/09/17 05:42:47;;;;;;;3.28;2.50;;;13.00;99.90;;;;;;4992708;28;20538;-70
2022/09/17 05:45:12;;;;;;;3.50;2.53;;;13.00;99.90;;;;;;4992688;28;20117;-69
2022/09/17 05:47:38;;;;;;;4.78;2.75;;;13.00;99.90;;;;;;4992119;28;20031;-69
2022/09/17 05:50:04;;;;;;;3.45;2.70;;;13.00;99.90;;;;;;4992992;28;20037;-69
2022/09/17 05:52:29;;;;;;;4.40;2.90;;;13.10;99.90;;;;;;4992415;28;20062;-69
2022/09/17 05:54:55;;;;;;;3.22;2.90;;;13.00;99.90;;;;;;4992805;28;20105;-69
2022/09/17 05:57:21;;;;;;;4.32;2.50;;;13.00;99.90;;;;;;4992752;28;20027;-69
2022/09/17 05:59:47;;;;;;;3.42;2.50;;;13.10;99.90;;;;;;4992444;28;20026;-69
2022/09/17 06:02:13;;;;;;;3.47;2.70;;;13.10;99.90;;;;;;4992636;28;20030;-70
2022/09/17 06:04:38;;;;;;;3.40;3.10;;;13.10;99.90;;;;;;4991767;28;20077;-70
2022/09/17 06:07:08;;;;;;;3.75;2.67;;;13.10;99.90;;;;;;4992740;28;20054;-70
2022/09/17 06:09:37;;;;;;;3.20;2.50;;;13.10;99.90;;;;;;4992211;28;20030;-70
2022/09/17 06:12:04;;;;;;;3.53;2.55;;;13.10;99.90;;;;;;4992701;28;20053;-70
2022/09/17 06:14:30;;;;;;;3.05;2.20;;;13.10;99.90;;;;;;4992680;28;20042;-70
2022/09/17 06:16:55;;;;;;;4.80;2.35;;;13.10;99.90;;;;;;4992581;28;20023;-70
2022/09/17 06:19:21;;;;;;;2.45;2.15;;;13.10;99.90;;;;;;4994120;28;20023;-70
2022/09/17 06:21:49;;;;;;;2.50;2.30;;;13.10;99.90;;;;;;4995908;28;20524;-70
2022/09/17 06:24:15;;;;;;;3.45;2.00;;;13.10;99.90;;;;;;4994849;28;20200;-69
2022/09/17 06:26:41;;;;;;;3.65;2.28;;;13.20;99.90;;;;;;4978306;28;20102;-69
2022/09/17 06:29:06;;;;;;;11.73;3.17;;;13.20;99.90;;;;;;4976781;28;20460;-71
2022/09/17 06:31:32;;;;;;;2.88;2.10;;;13.20;99.90;;;;;;4976036;28;20054;-71
2022/09/17 06:33:58;;;;;;;2.95;1.98;;;13.30;99.90;;;;;;4976676;28;20110;-70
2022/09/17 06:36:23;;;;;;;2.20;2.00;;;13.30;99.90;;;;;;4976847;28;20459;-69
2022/09/17 06:38:49;;;;;;;2.42;1.92;;;13.40;99.90;;;;;;4976291;28;20031;-70
2022/09/17 06:41:15;;;;;;;3.85;2.03;;;13.40;99.90;;;;;;4975446;28;20034;-68
2022/09/17 06:43:41;;;;;;;5.47;1.95;;;13.40;99.90;;;;;;4993181;28;20046;-69
2022/09/17 06:46:09;;;;;;;2.63;2.13;;;13.40;99.90;;;;;;4995837;28;20100;-70
2022/09/17 06:48:36;;;;;;;2.17;1.88;;;13.40;99.90;;;;;;4995245;28;20109;-70
2022/09/17 06:51:06;;;;;;;3.00;1.60;;;13.50;99.90;;;;;;4995361;28;20027;-70
2022/09/17 06:53:33;;;;;;;3.45;2.35;;;13.40;99.90;;;;;;4962064;28;20076;-69
2022/09/17 06:55:59;;;;;;;4.88;2.22;;;13.40;99.90;;;;;;4995636;28;20467;-70
2022/09/17 06:58:28;;;;;;;2.60;1.80;;;13.50;99.90;;;;;;4995960;28;20026;-70
2022/09/17 07:00:58;;;;;;;5.13;2.17;;;13.50;99.90;;;;;;4995287;28;20037;-71
2022/09/17 07:03:24;;;;;;;4.95;2.28;;;13.50;99.90;;;;;;4977993;28;20029;-71
2022/09/17 07:05:49;;;;;;;2.38;1.90;;;13.50;99.90;;;;;;4994832;28;20046;-70
2022/09/17 07:08:15;;;;;;;2.53;1.60;;;13.50;99.90;;;;;;4995629;28;20034;-70
2022/09/17 07:10:41;;;;;;;2.67;1.73;;;13.60;99.90;;;;;;4995001;28;20029;-69
2022/09/17 07:13:06;;;;;;;2.42;1.40;;;13.50;99.90;;;;;;4994983;28;20038;-70
2022/09/17 07:15:32;;;;;;;1.98;1.77;;;13.60;99.90;;;;;;4994897;28;20137;-70
2022/09/17 07:17:57;;;;;;;2.38;1.90;;;13.60;99.90;;;;;;4995253;28;20113;-70
2022/09/17 07:20:23;;;;;;;2.03;1.50;;;13.60;99.90;;;;;;4995072;28;20114;-70
2022/09/17 07:22:57;;;;;;;3.10;1.65;;;13.60;99.90;;;;;;4994601;28;20057;-70
2022/09/17 07:25:24;;;;;;;4.07;1.70;;;13.60;99.80;;;;;;4994964;28;20034;-69
2022/09/17 07:27:49;;;;;;;2.03;1.48;;;13.60;99.80;;;;;;4994337;28;20030;-69
2022/09/17 07:30:15;;;;;;;3.05;2.10;;;13.60;99.90;;;;;;4976485;28;20344;-70
2022/09/17 07:32:41;;;;;;;5.28;1.85;;;13.60;99.90;;;;;;4993932;28;20050;-70
2022/09/17 07:35:07;;;;;;;2.38;1.67;;;13.60;99.90;;;;;;4994588;28;20037;-70
2022/09/17 07:37:32;;;;;;;2.20;2.00;;;13.60;99.90;;;;;;4994324;28;20026;-69
2022/09/17 07:39:58;;;;;;;4.85;2.15;;;13.60;99.90;;;;;;4994752;28;20422;-70
2022/09/17 07:42:24;;;;;;;2.97;2.00;;;13.70;99.90;;;;;;4976854;28;20146;-70
2022/09/17 07:44:50;;;;;;;3.00;1.75;;;13.70;99.90;;;;;;4993983;28;20092;-70
2022/09/17 07:47:15;;;;;;;2.22;1.92;;;13.70;99.80;;;;;;4994455;28;20030;-70
2022/09/17 07:49:41;;;;;;;2.67;1.98;;;13.70;99.90;;;;;;4994309;28;20026;-70
2022/09/17 07:52:07;;;;;;;4.03;1.95;;;13.70;99.50;;;;;;4994702;28;20407;-70
2022/09/17 07:54:33;;;;;;;3.67;1.95;;;13.70;99.60;;;;;;4994317;28;20034;-72
2022/09/17 07:56:59;;;;;;;2.72;1.98;;;13.80;99.90;;;;;;4976729;28;20493;-70
2022/09/17 07:59:25;;;;;;;1.92;1.70;;;13.70;99.90;;;;;;4994268;28;20076;-70
2022/09/17 08:01:51;;;;;;;2.38;1.92;;;13.80;99.80;;;;;;4993925;28;20379;-69
2022/09/17 08:04:16;;;;;;;2.45;1.92;;;13.80;99.60;;;;;;4994462;28;20027;-70
2022/09/17 08:06:42;;;;;;;5.47;2.22;;;13.80;99.30;;;;;;4993784;28;20371;-70
2022/09/17 08:09:09;;;;;;;2.35;1.92;;;13.80;99.00;;;;;;4994188;28;20165;-69
2022/09/17 08:11:35;;;;;;;1.92;1.83;;;13.80;98.90;;;;;;4993768;28;20030;-70
2022/09/17 08:14:01;;;;;;;2.22;2.00;;;13.80;98.40;;;;;;4994215;28;20037;-70
2022/09/17 08:16:26;;;;;;;3.80;2.00;;;13.70;98.60;;;;;;4994186;28;20053;-70
2022/09/17 08:18:56;;;;;;;2.63;1.98;;;13.70;99.10;;;;;;4993753;28;20478;-69
2022/09/17 08:21:23;;;;;;;2.42;2.13;;;13.70;99.10;;;;;;4994113;28;20159;-71
2022/09/17 08:23:49;;;;;;;3.47;2.20;;;13.70;99.00;;;;;;4993085;28;20038;-70
2022/09/17 08:26:16;;;;;;;2.15;1.80;;;13.70;99.30;;;;;;4993867;28;20038;-69
2022/09/17 08:28:49;;;;;;;1.95;1.60;;;13.70;99.00;;;;;;4993516;28;20030;-70
2022/09/17 08:31:16;;;;;;;2.28;1.80;;;13.70;98.40;;;;;;4990868;28;20343;-70
2022/09/17 08:33:42;;;;;;;4.13;1.75;;;13.70;98.30;;;;;;4993024;28;20383;-70
2022/09/17 08:36:10;;;;;;;2.97;1.58;;;13.60;98.30;;;;;;4993578;28;20062;-70
2022/09/17 08:38:36;;;;;;;1.88;1.73;;;13.70;97.70;;;;;;4993232;28;20040;-71
2022/09/17 08:41:33;;;;;;;1.35;1.25;;;13.60;97.60;;;;;;4993580;28;20118;-70
2022/09/17 08:43:58;;;;;;;2.88;1.63;;;13.60;97.30;;;;;;4993016;28;20517;-69
2022/09/17 08:46:25;;;;;;;2.22;1.63;;;13.60;97.00;;;;;;4976107;28;20049;-69
2022/09/17 08:48:59;;;;;;;4.00;1.60;;;13.60;97.00;;;;;;4993145;28;20026;-70
2022/09/17 08:51:32;;;;;;;1.42;1.30;;;13.50;97.10;;;;;;4976199;28;20113;-69
2022/09/17 08:54:16;;;;;;;1.88;1.33;;;13.60;97.40;;;;;;4993237;28;20038;-70
2022/09/17 08:56:46;;;;;;;2.60;1.73;;;13.60;97.20;;;;;;4975613;28;20030;-71
2022/09/17 08:59:21;;;;;;;1.63;1.50;;;13.50;96.50;;;;;;4993292;28;20025;-70
2022/09/17 09:02:03;;;;;;;1.60;1.48;;;13.50;97.00;;;;;;4992526;28;20489;-70
2022/09/17 09:05:01;;;;;;;4.20;1.40;;;13.50;97.10;;;;;;4992860;28;20038;-69
2022/09/17 09:07:33;;;;;;;4.80;1.88;;;13.50;96.90;;;;;;4993313;28;20026;-70
2022/09/17 09:10:28;;;;;;;3.55;1.50;;;13.50;96.90;;;;;;4993862;28;20134;-69
2022/09/17 09:12:55;;;;;;;2.03;1.40;;;13.50;97.00;;;;;;4994912;28;20062;-70
2022/09/17 09:15:30;;;;;;;1.75;1.17;;;13.40;96.20;;;;;;4993593;28;20459;-68
2022/09/17 09:18:02;;;;;;;1.33;1.13;;;13.40;95.70;;;;;;4992981;28;20081;-68
2022/09/17 09:20:38;;;;;;;3.20;1.65;;;13.50;95.60;;;;;;4993588;28;20035;-69
2022/09/17 09:23:17;;;;;;;1.20;1.00;;;13.50;95.60;;;;;;4993389;28;20030;-69
2022/09/17 09:25:53;;;;;;;4.10;1.38;;;13.50;95.70;;;;;;4992880;28;20043;-69
2022/09/17 09:28:44;;;;;;;7.63;1.15;;;13.40;95.10;;;;;;4993015;28;20018;-70
2022/09/17 09:31:30;;;;;;;1.63;1.25;;;13.40;95.20;;;;;;4993260;28;20350;-70
2022/09/17 09:33:57;;;;;;;2.08;1.10;;;13.40;95.00;;;;;;4992526;28;20031;-69
2022/09/17 09:36:27;;;;;;;1.23;0.95;;;13.40;94.80;;;;;;4992466;28;20037;-70
2022/09/17 09:39:00;;;;;;;5.10;1.10;;;13.40;94.80;;;;;;4992221;28;20045;-69
2022/09/17 09:41:30;;;;;;;1.95;1.15;;;13.30;94.50;;;;;;4993130;28;20022;-69
2022/09/17 09:44:10;;;;;;;1.30;1.10;;;13.30;94.70;;;;;;4992740;28;20074;-70
2022/09/17 09:47:05;;;;;;;2.55;1.20;;;13.30;94.90;;;;;;4992813;28;20035;-70
2022/09/17 09:49:33;;;;;;;1.42;1.33;;;13.30;95.00;;;;;;4970035;28;20030;-70
2022/09/17 09:52:08;;;;;;;1.77;1.10;;;13.30;95.00;;;;;;4992469;28;20054;-70
2022/09/17 09:54:49;;;;;;;2.10;0.98;;;13.30;94.10;;;;;;4994874;28;20031;-68
2022/09/17 09:57:30;;;;;;;2.67;1.30;;;13.30;94.00;;;;;;4996722;28;20105;-69
2022/09/17 10:00:15;;;;;;;;;;;13.40;93.80;;;;;;4996121;28;20031;-69
2022/09/17 10:02:40;;;;;;;9.20;1.08;;;13.40;93.80;;;;;;4996021;28;20341;-69
2022/09/17 10:05:07;;;;;;;2.72;1.27;;;13.40;93.30;;;;;;4996006;28;20088;-69
2022/09/17 10:07:43;;;;;;;2.63;1.10;;;13.40;93.00;;;;;;4996383;28;20041;-70
2022/09/17 10:10:09;;;;;;;5.32;0.98;;;13.40;92.60;;;;;;4979298;28;20026;-69
2022/09/17 10:12:35;;;;;;;2.47;0.98;;;13.40;92.50;;;;;;4996127;28;20364;-70
2022/09/17 10:15:25;;;;;;;4.25;1.13;;;13.40;92.40;;;;;;4978460;28;20037;-69
2022/09/17 10:18:19;;;;;;;3.58;1.20;;;13.40;92.20;;;;;;4978464;28;20037;-70
2022/09/17 10:20:57;;;;;;;3.50;1.52;;;13.40;92.10;;;;;;4995678;28;20419;-70
2022/09/17 10:23:26;;;;;;;2.35;1.45;;;13.40;91.90;;;;;;4996201;28;20030;-69
2022/09/17 10:25:54;;;;;;;1.85;1.02;;;13.40;91.80;;;;;;4995058;28;20046;-69
2022/09/17 10:28:31;;;;;;;3.58;1.23;;;13.50;91.80;;;;;;4977103;28;20030;-68
2022/09/17 10:31:03;;;;;;;3.33;1.20;;;13.50;91.50;;;;;;4995682;28;20471;-71
2022/09/17 10:33:31;;;;;;;1.20;1.08;;;13.40;91.30;;;;;;4996059;28;20037;-69
2022/09/17 10:36:11;;;;;;;1.77;0.90;;;13.40;91.20;;;;;;4994674;28;20030;-69
2022/09/17 10:38:39;;;;;;;1.23;0.98;;;13.40;91.40;;;;;;4994130;28;20044;-70
2022/09/17 10:41:14;;;;;;;1.55;1.30;;;13.40;91.70;;;;;;4995299;28;20022;-69
2022/09/17 10:43:40;;;;;;;1.73;1.17;;;13.30;91.70;;;;;;4995746;28;20050;-69
2022/09/17 10:46:13;;;;;;;1.15;1.05;;;13.40;91.50;;;;;;4995356;28;20041;-69
2022/09/17 10:49:09;;;;;;;1.95;1.20;;;13.40;90.90;;;;;;4995806;28;20061;-70
2022/09/17 10:51:36;;;;;;;1.38;1.25;;;13.40;91.10;;;;;;4989383;28;20042;-70
2022/09/17 10:54:07;;;;;;;1.95;0.98;;;13.50;91.00;;;;;;4995287;28;20031;-70
2022/09/17 10:56:38;;;;;;;1.58;1.10;;;13.40;90.60;;;;;;4995797;28;20033;-70
2022/09/17 10:59:32;;;;;;;2.03;1.13;;;13.50;90.30;;;;;;4995266;28;20364;-69
2022/09/17 11:02:26;;;;;;;3.72;1.00;;;13.50;90.60;;;;;;4995257;28;20057;-70
2022/09/17 11:04:55;;;;;;;1.35;0.95;;;13.60;90.40;;;;;;4994795;28;20138;-70
2022/09/17 11:07:39;;;;;;;3.25;1.10;;;13.60;90.10;;;;;;4995332;28;20514;-70
2022/09/17 11:10:34;;;;;;;2.58;0.88;;;13.70;89.10;;;;;;4994990;28;20042;-69
2022/09/17 11:13:21;;;;;;;4.53;1.83;;;13.70;90.00;;;;;;4979268;28;20034;-70
2022/09/17 11:16:01;;;;;;;2.83;1.40;;;13.80;90.00;;;;;;4990397;28;20034;-73
2022/09/17 11:18:38;;;;;;;1.33;0.82;;;13.90;89.60;;;;;;4994806;28;20027;-70
2022/09/17 11:21:31;;;;;;;1.63;1.13;;;14.00;88.70;;;;;;4994319;28;20050;-69
2022/09/17 11:24:32;;;;;;;1.98;1.05;;;14.10;87.00;;;;;;4994188;28;20089;-69
2022/09/17 11:27:08;;;;;;;1.65;1.17;;;14.10;85.40;;;;;;4994509;28;20034;-69
2022/09/17 11:29:46;;;;;;;2.67;1.20;;;14.00;85.50;;;;;;4994998;28;20030;-68
2022/09/17 11:32:21;;;;;;;1.38;0.98;;;14.10;84.70;;;;;;4994059;28;20043;-70
2022/09/17 11:34:57;;;;;;;2.45;1.13;;;14.10;85.10;;;;;;4994804;28;20459;-69
2022/09/17 11:37:53;;;;;;;1.85;1.10;;;14.10;84.70;;;;;;4994710;28;20097;-68
2022/09/17 11:40:46;;;;;;;4.13;1.08;;;14.10;84.00;;;;;;4984329;28;20046;-70
2022/09/17 11:43:14;;;;;;;1.60;1.13;;;14.10;84.50;;;;;;4970402;28;20062;-70
2022/09/17 11:45:59;;;;;;;1.88;1.13;;;14.00;83.70;;;;;;4974268;28;20243;-69
2022/09/17 11:48:34;;;;;;;4.63;1.45;;;14.00;84.90;;;;;;4975177;28;20058;-69
2022/09/17 11:51:12;;;;;;;2.65;1.35;;;14.10;85.30;;;;;;4974909;28;20026;-69
2022/09/17 11:53:46;;;;;;;1.75;1.10;;;14.10;83.90;;;;;;4975068;28;20038;-69
2022/09/17 11:56:26;;;;;;;4.78;1.10;;;14.10;83.60;;;;;;4974641;28;20050;-69
2022/09/17 11:59:11;;;;;;;4.50;1.50;;;14.10;83.50;;;;;;4974581;28;20033;-69
2022/09/17 12:01:46;;;;;;;1.30;1.20;;;14.00;83.70;;;;;;4974310;28;20031;-69
2022/09/17 12:04:29;;;;;;;2.03;1.15;;;14.00;84.80;;;;;;4974495;28;20026;-70
2022/09/17 12:07:19;;;;;;;1.45;1.17;;;14.00;84.80;;;;;;4974445;28;20086;-70
2022/09/17 12:09:52;;;;;;;3.97;1.08;;;14.00;83.80;;;;;;4975013;28;20023;-70
2022/09/17 12:12:22;;;;;;;2.38;1.15;;;14.00;84.20;;;;;;4975120;28;20061;-70
2022/09/17 12:15:03;;;;;;;2.85;1.25;;;13.90;84.40;;;;;;4974809;28;20058;-70
2022/09/17 12:17:46;;;;;;;3.40;1.85;;;13.90;84.60;;;;;;4974321;28;20055;-70
2022/09/17 12:20:35;;;;;;;5.45;1.25;;;13.90;85.40;;;;;;4974316;28;20031;-70
2022/09/17 12:23:05;;;;;;;3.50;1.40;;;13.90;85.70;;;;;;4972750;28;20127;-70
2022/09/17 12:26:04;;;;;;;2.63;1.27;;;13.90;84.20;;;;;;4974759;28;20551;-70
2022/09/17 12:28:38;;;;;;;4.10;1.40;;;13.80;84.90;;;;;;4944366;28;20086;-70
2022/09/17 12:31:27;;;;;;;3.28;1.30;;;13.70;85.00;;;;;;4974102;28;20019;-70
2022/09/17 12:34:11;;;;;;;4.55;1.45;;;13.60;85.50;;;;;;4974075;28;20531;-72
2022/09/17 12:36:48;;;;;;;2.35;1.40;;;13.60;86.20;;;;;;4974832;28;20046;-69
2022/09/17 12:39:43;;;;;;;4.35;1.70;;;13.50;85.80;;;;;;4973865;28;20113;-70
2022/09/17 12:42:30;;;;;;;2.63;1.13;;;13.50;86.40;;;;;;4978793;28;20050;-69
2022/09/17 12:45:30;;;;;;;1.80;1.10;;;13.40;86.90;;;;;;4977593;28;20045;-71
2022/09/17 12:48:03;;;;;;;2.25;1.35;;;13.40;87.10;;;;;;4973638;28;20491;-69
2022/09/17 12:50:56;;;;;;;2.40;1.35;;;13.40;87.50;;;;;;4974115;28;20054;-70
2022/09/17 12:53:31;;;;;;;1.65;1.23;;;13.40;87.50;;;;;;4973821;28;20058;-68
2022/09/17 12:56:16;;;;;;;5.93;2.33;;;13.40;88.10;;;;;;4973645;28;20030;-69
2022/09/17 12:58:45;;;;;;;2.45;1.48;;;13.40;87.50;;;;;;4973876;28;20039;-69
2022/09/17 13:01:30;;;;;;;3.85;1.40;;;13.40;87.80;;;;;;4956085;28;20045;-69
2022/09/17 13:04:08;;;;;;;3.42;1.35;;;13.40;87.30;;;;;;4973188;28;20030;-68
2022/09/17 13:06:46;;;;;;;2.85;1.45;;;13.40;87.60;;;;;;4973928;28;20045;-68
2022/09/17 13:09:43;;;;;;;4.03;1.02;;;13.40;87.50;;;;;;4973502;28;20031;-68
2022/09/17 13:12:15;;;;;;;4.45;1.45;;;13.30;87.30;;;;;;4956147;28;20027;-68
2022/09/17 13:15:00;;;;;;;4.30;1.50;;;13.30;87.60;;;;;;4973732;28;20118;-68
2022/09/17 13:18:03;;;;;;;4.10;1.50;;;13.30;87.00;;;;;;4973870;28;20109;-68